createdAt,value
2022-08-07T00:02:36.711Z,15.68
2022-08-07T00:06:51.067Z,15.59
2022-08-07T00:10:58.170Z,15.57
2022-08-07T00:15:10.821Z,15.56
2022-08-07T00:19:21.303Z,15.59
2022-08-07T00:23:24.775Z,15.49
2022-08-07T00:27:51.926Z,15.41
2022-08-07T00:31:53.966Z,15.38
2022-08-07T00:35:57.094Z,15.31
2022-08-07T00:40:03.874Z,15.27
2022-08-07T00:44:06.062Z,15.19
2022-08-07T00:48:11.264Z,15.13
2022-08-07T00:52:13.442Z,15.04
2022-08-07T00:56:20.019Z,14.98
2022-08-07T01:00:26.923Z,14.89
2022-08-07T01:04:30.320Z,14.77
2022-08-07T01:08:34.952Z,14.66
2022-08-07T01:12:39.809Z,14.57
2022-08-07T01:16:56.949Z,14.52
2022-08-07T01:21:26.042Z,14.48
2022-08-07T01:25:54.079Z,14.36
2022-08-07T01:29:55.223Z,14.21
2022-08-07T01:33:58.774Z,14.14
2022-08-07T01:38:06.888Z,14.08
2022-08-07T01:42:38.580Z,14.00
2022-08-07T01:46:41.540Z,13.89
2022-08-07T01:50:49.394Z,13.88
2022-08-07T01:54:55.971Z,13.87
2022-08-07T01:59:31.059Z,13.87
2022-08-07T02:03:42.806Z,13.88
2022-08-07T02:07:56.086Z,13.86
2022-08-07T02:12:18.465Z,13.78
2022-08-07T02:16:28.395Z,13.66
2022-08-07T02:20:35.285Z,13.50
2022-08-07T02:24:44.631Z,13.34
2022-08-07T02:28:49.588Z,13.13
2022-08-07T02:33:03.555Z,13.02
2022-08-07T02:37:13.836Z,12.94
2022-08-07T02:41:21.639Z,12.91
2022-08-07T02:45:58.875Z,12.80
2022-08-07T02:49:57.644Z,12.63
2022-08-07T02:54:03.551Z,12.49
2022-08-07T02:58:10.115Z,12.42
2022-08-07T03:02:14.668Z,12.42
2022-08-07T03:06:25.888Z,12.32
2022-08-07T03:10:40.979Z,12.18
2022-08-07T03:14:52.423Z,12.08
2022-08-07T03:18:55.979Z,12.02
2022-08-07T03:22:59.301Z,11.97
2022-08-07T03:27:04.746Z,11.96
2022-08-07T03:31:23.753Z,11.97
2022-08-07T03:35:43.584Z,11.92
2022-08-07T03:40:13.433Z,11.92
2022-08-07T03:44:16.278Z,11.94
2022-08-07T03:48:25.939Z,11.95
2022-08-07T03:52:29.643Z,12.02
2022-08-07T03:56:38.768Z,12.04
2022-08-07T04:01:03.099Z,12.10
2022-08-07T04:05:28.752Z,12.18
2022-08-07T04:09:50.254Z,12.22
2022-08-07T04:14:10.879Z,12.34
2022-08-07T04:18:57.549Z,12.46
2022-08-07T04:22:53.817Z,12.67
2022-08-07T04:27:04.841Z,12.91
2022-08-07T04:31:10.257Z,13.30
2022-08-07T04:35:23.279Z,13.89
2022-08-07T04:39:28.856Z,14.65
2022-08-07T04:44:11.964Z,15.23
2022-08-07T04:48:34.738Z,15.75
2022-08-07T04:53:03.229Z,15.98
2022-08-07T04:58:13.161Z,16.24
2022-08-07T05:02:36.680Z,16.52
2022-08-07T05:07:09.600Z,16.75
2022-08-07T05:11:57.407Z,17.15
2022-08-07T05:15:57.171Z,17.80
2022-08-07T05:20:00.202Z,18.53
2022-08-07T05:24:16.763Z,18.93
2022-08-07T05:28:23.028Z,18.79
2022-08-07T05:32:30.279Z,18.77
2022-08-07T05:36:35.649Z,18.78
2022-08-07T05:40:50.675Z,18.66
2022-08-07T05:45:25.794Z,18.42
2022-08-07T05:49:40.384Z,18.19
2022-08-07T05:54:09.508Z,18.03
2022-08-07T05:58:11.490Z,17.84
2022-08-07T06:02:20.079Z,17.77
2022-08-07T06:06:33.257Z,17.73
2022-08-07T06:10:38.631Z,17.69
2022-08-07T06:15:05.308Z,17.69
2022-08-07T06:19:09.004Z,17.64
2022-08-07T06:23:46.558Z,17.65
2022-08-07T06:28:00.730Z,17.62
2022-08-07T06:32:05.286Z,17.70
2022-08-07T06:36:13.313Z,17.77
2022-08-07T06:40:56.403Z,17.86
2022-08-07T06:45:00.710Z,17.92
2022-08-07T06:49:04.974Z,17.96
2022-08-07T06:54:11.507Z,17.95
2022-08-07T06:57:39.825Z,17.91
2022-08-07T07:01:56.337Z,17.98
2022-08-07T07:06:05.572Z,18.00
2022-08-07T07:10:13.274Z,18.07
2022-08-07T07:14:50.246Z,18.17
2022-08-07T07:19:55.631Z,18.26
2022-08-07T07:24:06.490Z,18.38
2022-08-07T07:28:42.395Z,18.51
2022-08-07T07:32:46.908Z,18.73
2022-08-07T07:36:52.595Z,18.99
2022-08-07T07:41:19.690Z,19.23
2022-08-07T07:46:36.936Z,19.58
2022-08-07T07:50:34.146Z,19.83
2022-08-07T07:54:14.768Z,20.13
2022-08-07T07:58:19.608Z,20.34
2022-08-07T08:02:33.990Z,20.46
2022-08-07T08:06:40.358Z,20.61
2022-08-07T08:10:56.078Z,20.70
2022-08-07T08:14:58.369Z,20.93
2022-08-07T08:19:09.680Z,21.03
2022-08-07T08:23:41.337Z,21.12
2022-08-07T08:27:56.968Z,21.37
2022-08-07T08:32:18.031Z,21.47
2022-08-07T08:36:29.734Z,21.42
2022-08-07T08:40:38.549Z,21.47
2022-08-07T08:44:57.935Z,21.34
2022-08-07T08:49:32.759Z,21.15
2022-08-07T08:53:52.178Z,21.42
2022-08-07T08:58:28.783Z,21.62
2022-08-07T09:02:49.561Z,21.71
2022-08-07T09:07:11.306Z,21.83
2022-08-07T09:11:50.807Z,21.99
2022-08-07T09:16:23.131Z,22.06
2022-08-07T09:21:00.727Z,22.09
2022-08-07T09:25:14.491Z,22.28
2022-08-07T09:30:03.930Z,22.47
2022-08-07T09:34:21.131Z,22.62
2022-08-07T09:38:29.377Z,22.84
2022-08-07T09:42:52.143Z,22.90
2022-08-07T09:47:52.124Z,22.43
2022-08-07T09:52:10.121Z,21.88
2022-08-07T09:56:41.947Z,21.92
2022-08-07T10:01:52.089Z,22.09
2022-08-07T10:06:24.612Z,22.28
2022-08-07T10:11:17.027Z,22.52
2022-08-07T10:15:15.099Z,22.60
2022-08-07T10:19:23.438Z,22.70
2022-08-07T10:24:06.263Z,22.67
2022-08-07T10:28:16.701Z,22.83
2022-08-07T10:32:51.546Z,23.01
2022-08-07T10:36:58.842Z,23.31
2022-08-07T10:41:08.881Z,23.40
2022-08-07T10:45:45.297Z,23.34
2022-08-07T10:50:25.859Z,23.41
2022-08-07T10:54:40.816Z,23.41
2022-08-07T10:59:05.869Z,23.51
2022-08-07T11:03:16.745Z,23.68
2022-08-07T11:08:00.273Z,23.74
2022-08-07T11:12:12.031Z,23.71
2022-08-07T11:16:22.518Z,23.69
2022-08-07T11:20:48.741Z,23.71
2022-08-07T11:25:23.248Z,23.62
2022-08-07T11:29:42.925Z,23.64
2022-08-07T11:34:19.276Z,23.79
2022-08-07T11:38:32.995Z,23.90
2022-08-07T11:42:44.874Z,23.92
2022-08-07T11:47:09.917Z,23.97
2022-08-07T11:51:41.130Z,24.17
2022-08-07T11:56:25.689Z,24.39
2022-08-07T12:00:28.585Z,24.44
2022-08-07T12:04:42.677Z,24.47
2022-08-07T12:08:55.867Z,24.50
2022-08-07T12:13:47.461Z,24.23
2022-08-07T12:17:59.801Z,24.03
2022-08-07T12:22:39.607Z,23.86
2022-08-07T12:26:55.169Z,23.94
2022-08-07T12:31:09.274Z,24.17
2022-08-07T12:35:14.448Z,24.41
2022-08-07T12:39:43.094Z,24.49
2022-08-07T12:44:01.516Z,24.55
2022-08-07T12:48:28.266Z,24.63
2022-08-07T12:52:56.861Z,24.65
2022-08-07T12:57:07.424Z,24.78
2022-08-07T13:01:49.167Z,24.83
2022-08-07T13:06:21.708Z,24.82
2022-08-07T13:10:44.802Z,24.86
2022-08-07T13:15:32.468Z,24.82
2022-08-07T13:19:51.768Z,24.84
2022-08-07T13:24:31.242Z,25.00
2022-08-07T13:28:43.806Z,25.18
2022-08-07T13:34:29.795Z,25.25
2022-08-07T13:37:55.579Z,25.14
2022-08-07T13:42:02.923Z,25.14
2022-08-07T13:46:21.099Z,25.10
2022-08-07T13:50:33.596Z,24.99
2022-08-07T13:54:49.335Z,24.88
2022-08-07T13:59:05.605Z,24.93
2022-08-07T14:03:14.331Z,24.99
2022-08-07T14:07:37.914Z,24.86
2022-08-07T14:12:07.357Z,24.85
2022-08-07T14:16:17.515Z,24.96
2022-08-07T14:20:42.976Z,25.08
2022-08-07T14:24:51.111Z,24.97
2022-08-07T14:28:55.856Z,24.87
2022-08-07T14:33:05.197Z,24.88
2022-08-07T14:37:16.341Z,24.97
2022-08-07T14:41:34.143Z,24.92
2022-08-07T14:45:54.673Z,24.92
2022-08-07T14:54:34.715Z,24.79
2022-08-07T14:59:00.557Z,24.82
2022-08-07T15:03:16.668Z,24.84
2022-08-07T15:07:47.292Z,24.89
2022-08-07T15:12:09.676Z,24.84
2022-08-07T15:21:44.227Z,24.71
2022-08-07T15:26:32.301Z,24.61
2022-08-07T15:54:07.450Z,23.52
2022-08-07T15:59:39.784Z,23.29
2022-08-07T16:04:37.269Z,23.31
2022-08-07T16:08:46.886Z,23.47
2022-08-07T16:18:51.011Z,23.92
2022-08-07T16:30:05.842Z,23.98
2022-08-07T16:34:06.897Z,23.96
2022-08-07T16:44:03.909Z,23.73
2022-08-07T16:48:53.888Z,23.54
2022-08-07T16:54:01.643Z,23.30
2022-08-07T16:58:03.968Z,23.11
2022-08-07T17:02:53.004Z,22.90
2022-08-07T17:07:51.331Z,22.68
2022-08-07T17:12:03.922Z,22.55
2022-08-07T17:16:16.110Z,22.44
2022-08-07T17:20:41.129Z,22.50
2022-08-07T17:24:47.336Z,22.53
2022-08-07T17:30:13.084Z,22.38
2022-08-07T17:34:33.402Z,22.03
2022-08-07T17:38:33.094Z,21.75
2022-08-07T17:43:21.257Z,21.57
2022-08-07T17:48:06.486Z,21.43
2022-08-07T17:52:35.523Z,21.35
2022-08-07T17:57:25.745Z,21.26
2022-08-07T18:02:14.780Z,21.08
2022-08-07T18:06:37.207Z,20.91
2022-08-07T18:12:20.000Z,20.69
2022-08-07T18:16:30.808Z,20.28
2022-08-07T18:21:38.206Z,19.80
2022-08-07T18:25:52.196Z,19.33
2022-08-07T18:30:32.951Z,19.06
2022-08-07T18:35:20.649Z,18.81
2022-08-07T18:40:08.480Z,18.52
2022-08-07T18:44:31.209Z,18.17
2022-08-07T18:50:05.164Z,17.96
2022-08-07T18:53:54.120Z,17.67
2022-08-07T18:58:13.015Z,17.41
2022-08-07T19:02:53.130Z,17.16
2022-08-07T19:07:51.594Z,17.00
2022-08-07T19:12:19.564Z,16.76
2022-08-07T19:17:09.282Z,16.66
2022-08-07T19:21:48.046Z,16.58
2022-08-07T19:26:23.696Z,16.37
2022-08-07T19:31:02.151Z,16.18
2022-08-07T19:35:26.965Z,16.13
2022-08-07T19:39:56.215Z,16.07
2022-08-07T19:44:35.023Z,15.94
2022-08-07T19:49:56.676Z,15.80
2022-08-07T19:54:35.149Z,15.75
2022-08-07T19:58:32.167Z,15.77
2022-08-07T20:02:53.364Z,15.74
2022-08-07T20:07:00.773Z,15.60
2022-08-07T20:11:09.616Z,15.43
2022-08-07T20:15:22.068Z,15.35
2022-08-07T20:19:48.034Z,15.20
2022-08-07T20:24:07.178Z,14.97
2022-08-07T20:28:18.074Z,14.82
2022-08-07T20:32:47.612Z,14.72
2022-08-07T20:36:52.309Z,14.67
2022-08-07T20:41:03.816Z,14.66
2022-08-07T20:46:28.477Z,14.61
2022-08-07T20:50:03.519Z,14.44
2022-08-07T20:54:29.897Z,14.39
2022-08-07T20:58:43.126Z,14.41
2022-08-07T21:03:03.613Z,14.37
2022-08-07T21:07:49.486Z,14.32
2022-08-07T21:12:41.208Z,14.23
2022-08-07T21:18:04.070Z,14.16
2022-08-07T21:22:55.498Z,14.13
2022-08-07T21:28:02.402Z,14.12
2022-08-07T21:32:48.824Z,14.03
2022-08-07T21:37:03.631Z,14.00
2022-08-07T21:41:38.149Z,13.97
2022-08-07T21:46:07.982Z,13.95
2022-08-07T21:50:30.220Z,13.95
2022-08-07T21:54:35.628Z,13.92
2022-08-07T21:59:06.597Z,13.83
2022-08-07T22:03:31.516Z,13.67
2022-08-07T22:07:58.567Z,13.57
2022-08-07T22:12:11.231Z,13.56
2022-08-07T22:16:53.685Z,13.51
2022-08-07T22:21:11.511Z,13.35
2022-08-07T22:25:36.473Z,13.15
2022-08-07T22:30:12.719Z,13.06
2022-08-07T22:34:29.018Z,12.88
2022-08-07T22:38:59.241Z,12.84
2022-08-07T22:43:10.678Z,12.82
2022-08-07T22:47:40.033Z,12.82
2022-08-07T22:52:36.866Z,12.88
2022-08-07T22:57:14.992Z,12.84
2022-08-07T23:01:54.276Z,12.82
2022-08-07T23:06:35.802Z,12.78
2022-08-07T23:11:16.053Z,12.72
2022-08-07T23:16:06.386Z,12.71
2022-08-07T23:20:51.744Z,12.70
2022-08-07T23:25:15.114Z,12.66
2022-08-07T23:30:36.047Z,12.56
2022-08-07T23:34:51.789Z,12.43
2022-08-07T23:39:08.640Z,12.37
2022-08-07T23:43:38.813Z,12.38
2022-08-07T23:48:11.378Z,12.42
2022-08-07T23:53:06.461Z,12.40
2022-08-07T23:57:12.051Z,12.34
